Time;durP1;ratioP1;P1;durP2;ratioP2;P2;SDS_P1;SDS_P2;PMS_P1;PMS_P2;Temp;Humidity;BMP_temperature;BMP_pressure;BME280_temperature;BME280_humidity;BME280_pressure;Samples;Min_cycle;Max_cycle;Signal;HPM_P1;HPM_P2
2024/01/25 00:00:21;;;;;;;21.77;4.53;;;8.40;99.90;;;;;;5094161;27;20799;-60
2024/01/25 00:02:47;;;;;;;14.33;4.07;;;8.30;99.90;;;;;;5075680;28;20216;-54
2024/01/25 00:05:12;;;;;;;15.03;4.30;;;8.40;99.90;;;;;;5095490;27;20204;-55
2024/01/25 00:07:50;;;;;;;14.13;3.57;;;8.50;99.90;;;;;;5093847;27;20640;-60
2024/01/25 00:10:19;;;;;;;17.07;4.47;;;8.40;99.90;;;;;;5092108;27;20830;-59
2024/01/25 00:12:44;;;;;;;12.53;4.03;;;8.30;99.90;;;;;;5096435;27;20199;-54
2024/01/25 00:15:10;;;;;;;14.37;4.60;;;8.30;99.90;;;;;;5096318;27;20649;-53
2024/01/25 00:17:36;;;;;;;19.77;6.83;;;8.30;99.90;;;;;;5091586;27;20202;-54
2024/01/25 00:20:02;;;;;;;18.47;4.77;;;8.20;99.90;;;;;;5089736;28;20203;-56
2024/01/25 00:22:28;;;;;;;15.97;3.90;;;8.20;99.90;;;;;;5091190;28;20288;-53
2024/01/25 00:24:54;;;;;;;18.83;4.43;;;8.20;99.90;;;;;;5073832;28;20540;-53
2024/01/25 00:27:20;;;;;;;19.73;4.97;;;8.20;99.90;;;;;;5094194;27;20192;-54
2024/01/25 00:29:45;;;;;;;15.37;3.80;;;8.20;99.90;;;;;;5093860;28;20574;-56
2024/01/25 00:32:10;;;;;;;18.40;3.97;;;8.20;99.90;;;;;;5091694;27;20305;-55
2024/01/25 00:34:36;;;;;;;17.17;3.97;;;8.20;99.90;;;;;;5098378;27;20200;-53
2024/01/25 00:37:02;;;;;;;19.63;4.97;;;8.20;99.90;;;;;;5101927;27;20268;-53
2024/01/25 00:39:28;;;;;;;18.57;4.27;;;8.30;99.90;;;;;;5094589;27;20204;-53
2024/01/25 00:42:02;;;;;;;12.70;3.60;;;8.30;99.90;;;;;;5095261;27;20201;-54
2024/01/25 00:44:28;;;;;;;14.13;3.70;;;8.20;99.90;;;;;;5094721;27;21386;-53
2024/01/25 00:46:54;;;;;;;17.40;4.53;;;8.30;99.90;;;;;;5086158;28;20591;-53
2024/01/25 00:49:20;;;;;;;15.10;6.13;;;8.30;99.90;;;;;;5093779;27;20681;-59
2024/01/25 00:51:47;;;;;;;14.67;3.60;;;8.30;99.90;;;;;;5092298;28;20220;-62
2024/01/25 00:54:14;;;;;;;12.40;3.70;;;8.30;99.90;;;;;;5092048;27;20220;-60
2024/01/25 00:56:40;;;;;;;20.90;4.60;;;8.20;99.90;;;;;;5092426;27;20737;-53
2024/01/25 00:59:06;;;;;;;17.13;4.73;;;8.20;99.90;;;;;;5089680;28;20200;-54
2024/01/25 01:01:32;;;;;;;11.53;3.77;;;8.20;99.90;;;;;;5093476;28;20208;-54
2024/01/25 01:03:58;;;;;;;21.83;4.53;;;8.30;99.90;;;;;;5096748;27;20739;-62
2024/01/25 01:06:24;;;;;;;10.27;3.77;;;8.30;99.90;;;;;;5093184;28;20338;-61
2024/01/25 01:08:50;;;;;;;15.03;3.93;;;8.30;99.90;;;;;;5091647;27;20694;-54
2024/01/25 01:11:16;;;;;;;16.43;4.30;;;8.30;99.90;;;;;;5097688;27;20220;-53
2024/01/25 01:13:41;;;;;;;16.47;3.77;;;8.30;99.90;;;;;;5094778;27;20262;-53
2024/01/25 01:16:07;;;;;;;20.23;4.87;;;8.30;99.90;;;;;;5091871;27;20201;-54
2024/01/25 01:18:32;;;;;;;17.97;4.53;;;8.30;99.90;;;;;;5096618;27;20296;-60
2024/01/25 01:20:58;;;;;;;17.40;4.40;;;8.30;99.90;;;;;;5101031;27;20944;-60
2024/01/25 01:23:23;;;;;;;14.60;5.20;;;8.30;99.90;;;;;;5094281;27;20199;-60
2024/01/25 01:25:49;;;;;;;17.57;3.50;;;8.30;99.90;;;;;;5094979;27;20208;-59
2024/01/25 01:28:15;;;;;;;12.17;4.37;;;8.30;99.90;;;;;;5096865;27;21012;-65
2024/01/25 01:30:41;;;;;;;16.70;4.27;;;8.20;99.90;;;;;;5087988;27;20216;-59
2024/01/25 01:33:08;;;;;;;18.00;4.13;;;8.20;99.90;;;;;;5095590;28;20193;-59
2024/01/25 01:35:34;;;;;;;12.63;3.33;;;8.20;99.90;;;;;;5092284;28;21812;-59
2024/01/25 01:38:00;;;;;;;15.07;3.73;;;8.20;99.90;;;;;;5098020;27;20210;-59
2024/01/25 01:40:25;;;;;;;16.80;4.93;;;8.30;99.90;;;;;;5079796;28;20201;-62
2024/01/25 01:42:51;;;;;;;15.13;4.23;;;8.20;99.90;;;;;;5093078;27;20205;-61
2024/01/25 01:45:16;;;;;;;15.77;4.10;;;8.20;99.90;;;;;;5098571;27;20200;-55
2024/01/25 01:47:42;;;;;;;17.53;4.27;;;8.20;99.90;;;;;;5096143;27;20465;-56
2024/01/25 01:50:09;;;;;;;20.27;4.77;;;8.20;99.90;;;;;;5091967;27;20265;-59
2024/01/25 01:52:35;;;;;;;15.83;4.57;;;8.20;99.90;;;;;;5084791;28;20208;-53
2024/01/25 01:55:01;;;;;;;18.53;4.57;;;8.20;99.90;;;;;;5092794;28;20260;-52
2024/01/25 01:57:27;;;;;;;15.90;4.40;;;8.20;99.90;;;;;;5089649;28;20948;-53
2024/01/25 01:59:52;;;;;;;11.67;3.63;;;8.20;99.90;;;;;;5072332;28;20193;-55
2024/01/25 02:02:18;;;;;;;18.53;4.80;;;8.20;99.90;;;;;;5075404;28;20232;-54
2024/01/25 02:04:44;;;;;;;11.23;3.33;;;8.20;99.90;;;;;;5091601;28;20204;-54
2024/01/25 02:07:10;;;;;;;18.17;4.73;;;8.20;99.90;;;;;;5091316;28;20211;-53
2024/01/25 02:09:36;;;;;;;13.03;3.90;;;8.20;99.90;;;;;;5091982;28;20664;-56
2024/01/25 02:12:02;;;;;;;19.23;4.37;;;8.10;99.90;;;;;;5093439;28;20256;-53
2024/01/25 02:14:28;;;;;;;17.57;3.87;;;8.10;99.90;;;;;;5091451;28;20204;-52
2024/01/25 02:16:53;;;;;;;13.60;3.70;;;8.10;99.90;;;;;;5090061;28;20228;-55
2024/01/25 02:19:19;;;;;;;14.83;3.73;;;8.10;99.90;;;;;;5077431;28;20203;-55
2024/01/25 02:21:44;;;;;;;19.63;5.17;;;8.10;99.90;;;;;;5094060;28;20199;-53
2024/01/25 02:24:10;;;;;;;11.10;4.20;;;8.10;99.90;;;;;;5096358;27;20955;-55
2024/01/25 02:26:36;;;;;;;19.57;5.10;;;8.10;99.90;;;;;;5099978;27;20192;-54
2024/01/25 02:29:04;;;;;;;16.70;4.20;;;8.10;99.90;;;;;;5081610;28;20208;-54
2024/01/25 02:31:30;;;;;;;10.17;4.17;;;8.10;99.90;;;;;;5077816;28;20694;-56
2024/01/25 02:33:56;;;;;;;22.47;4.60;;;8.00;99.90;;;;;;5095815;28;20270;-54
2024/01/25 02:36:25;;;;;;;14.93;3.70;;;8.00;99.90;;;;;;5092359;27;20233;-54
2024/01/25 02:38:50;;;;;;;20.97;5.23;;;8.00;99.90;;;;;;5101421;27;20196;-54
2024/01/25 02:41:16;;;;;;;20.30;4.77;;;8.00;99.90;;;;;;5095948;28;20201;-54
2024/01/25 02:43:41;;;;;;;21.63;5.87;;;8.00;99.90;;;;;;5094702;28;20204;-53
2024/01/25 02:46:07;;;;;;;10.50;5.47;;;8.00;99.90;;;;;;5073663;27;20204;-53
2024/01/25 02:48:33;;;;;;;21.23;5.10;;;8.00;99.90;;;;;;5076730;28;20200;-53
2024/01/25 02:50:59;;;;;;;15.07;4.00;;;7.90;99.90;;;;;;5093665;28;20208;-53
2024/01/25 02:53:24;;;;;;;16.80;4.13;;;7.90;99.90;;;;;;5095542;28;20249;-54
2024/01/25 02:55:50;;;;;;;14.13;3.77;;;7.90;99.90;;;;;;5097155;28;20725;-53
2024/01/25 02:58:15;;;;;;;18.00;4.03;;;7.90;99.90;;;;;;5095275;27;20201;-53
2024/01/25 03:00:41;;;;;;;11.67;3.40;;;7.90;99.90;;;;;;5090374;27;20197;-53
2024/01/25 03:03:06;;;;;;;9.87;3.33;;;7.90;99.90;;;;;;5094750;28;20209;-53
2024/01/25 03:05:32;;;;;;;14.77;4.03;;;7.90;99.90;;;;;;5098460;27;20991;-57
2024/01/25 03:07:57;;;;;;;19.63;4.60;;;7.90;99.90;;;;;;5083676;28;20295;-54
2024/01/25 03:10:23;;;;;;;14.73;4.17;;;7.90;99.90;;;;;;5092492;28;20216;-60
2024/01/25 03:12:49;;;;;;;11.37;3.60;;;7.90;99.90;;;;;;5095300;27;21232;-62
2024/01/25 03:15:15;;;;;;;13.27;4.00;;;8.00;99.90;;;;;;5092614;28;20194;-62
2024/01/25 03:17:40;;;;;;;12.87;4.07;;;7.90;99.90;;;;;;5081522;28;20200;-61
2024/01/25 03:20:06;;;;;;;13.57;3.80;;;7.90;99.90;;;;;;5096381;27;20212;-54
2024/01/25 03:22:32;;;;;;;19.53;4.43;;;7.90;99.90;;;;;;5093515;27;20205;-54
2024/01/25 03:24:57;;;;;;;18.47;4.30;;;7.90;99.90;;;;;;5102148;27;20952;-54
2024/01/25 03:27:23;;;;;;;11.70;3.33;;;7.90;99.90;;;;;;5091437;28;21279;-56
2024/01/25 03:29:48;;;;;;;17.23;4.47;;;7.90;99.90;;;;;;5091404;28;20212;-52
2024/01/25 03:32:14;;;;;;;15.13;4.97;;;7.90;99.90;;;;;;5100751;27;20745;-54
2024/01/25 03:34:40;;;;;;;16.83;3.60;;;7.90;99.90;;;;;;5096205;28;20212;-53
2024/01/25 03:37:05;;;;;;;18.80;4.33;;;7.90;99.90;;;;;;5096642;28;20659;-53
2024/01/25 03:39:31;;;;;;;19.73;4.13;;;7.80;99.90;;;;;;5099960;27;20205;-53
2024/01/25 03:41:56;;;;;;;14.90;3.13;;;7.80;99.90;;;;;;5090254;27;20702;-53
2024/01/25 03:44:22;;;;;;;16.93;5.23;;;7.80;99.90;;;;;;5092999;27;20196;-53
2024/01/25 03:46:47;;;;;;;13.07;4.63;;;7.80;99.90;;;;;;5095346;27;20228;-53
2024/01/25 03:49:13;;;;;;;19.83;3.83;;;7.80;99.90;;;;;;5088864;27;20267;-54
2024/01/25 03:51:38;;;;;;;18.50;5.23;;;7.80;99.90;;;;;;5093260;27;20243;-54
2024/01/25 03:54:04;;;;;;;12.80;4.40;;;7.80;99.90;;;;;;5091516;27;20280;-53
2024/01/25 03:56:29;;;;;;;21.17;4.10;;;7.80;99.90;;;;;;5097376;27;20220;-53
2024/01/25 03:58:55;;;;;;;18.57;3.20;;;7.80;99.90;;;;;;5093988;27;20212;-52
2024/01/25 04:01:20;;;;;;;14.70;3.90;;;7.80;99.90;;;;;;5080143;28;20192;-53
2024/01/25 04:03:46;;;;;;;15.20;4.03;;;7.80;99.90;;;;;;5098589;27;20280;-52
2024/01/25 04:06:11;;;;;;;10.73;4.27;;;7.80;99.90;;;;;;5097629;27;20253;-52
2024/01/25 04:08:37;;;;;;;21.63;6.13;;;7.80;99.90;;;;;;5094833;27;20677;-54
2024/01/25 04:11:03;;;;;;;18.03;4.80;;;7.70;99.90;;;;;;5095559;27;20228;-53
2024/01/25 04:13:28;;;;;;;19.93;4.90;;;7.70;99.90;;;;;;5100353;27;20280;-53
2024/01/25 04:15:54;;;;;;;14.77;4.57;;;7.70;99.90;;;;;;5102770;27;20928;-53
2024/01/25 04:18:19;;;;;;;19.40;5.07;;;7.70;99.90;;;;;;5095031;27;20205;-54
2024/01/25 04:20:46;;;;;;;15.17;4.10;;;7.70;99.90;;;;;;5096104;27;20685;-51
2024/01/25 04:23:12;;;;;;;16.93;3.90;;;7.70;99.90;;;;;;5094528;28;20189;-54
2024/01/25 04:25:37;;;;;;;11.03;3.60;;;7.70;99.90;;;;;;5095567;27;20205;-53
2024/01/25 04:28:03;;;;;;;16.50;4.20;;;7.70;99.90;;;;;;5100120;27;20228;-53
2024/01/25 04:30:30;;;;;;;14.10;4.23;;;7.70;99.90;;;;;;5093390;27;20894;-54
2024/01/25 04:32:56;;;;;;;15.47;4.27;;;7.70;99.90;;;;;;5101079;27;20200;-53
2024/01/25 04:35:21;;;;;;;18.90;5.27;;;7.70;99.90;;;;;;5094242;28;20207;-53
2024/01/25 04:37:47;;;;;;;20.70;5.07;;;7.70;99.90;;;;;;5096304;27;20264;-54
2024/01/25 04:40:12;;;;;;;16.07;3.83;;;7.70;99.90;;;;;;5095741;27;20381;-53
2024/01/25 04:42:38;;;;;;;15.77;4.90;;;7.70;99.90;;;;;;5094267;28;21247;-53
2024/01/25 04:45:04;;;;;;;16.47;4.37;;;7.60;99.90;;;;;;5094438;27;20283;-53
2024/01/25 04:47:29;;;;;;;16.60;4.43;;;7.70;99.90;;;;;;5093674;28;20195;-53
2024/01/25 04:49:55;;;;;;;15.30;3.73;;;7.60;99.90;;;;;;5090881;27;20212;-53
2024/01/25 04:52:20;;;;;;;14.63;4.50;;;7.70;99.90;;;;;;5093347;27;20258;-52
2024/01/25 04:54:46;;;;;;;12.33;3.97;;;7.70;99.90;;;;;;5079819;28;20408;-52
2024/01/25 04:57:11;;;;;;;16.73;3.93;;;7.70;99.90;;;;;;5075351;28;20220;-54
2024/01/25 04:59:37;;;;;;;17.73;4.30;;;7.70;99.90;;;;;;5094190;28;20713;-54
2024/01/25 05:02:02;;;;;;;13.03;4.47;;;7.60;99.90;;;;;;5074803;28;20196;-54
2024/01/25 05:04:29;;;;;;;11.70;2.73;;;7.60;99.90;;;;;;5090986;27;20204;-54
2024/01/25 05:06:55;;;;;;;10.27;3.57;;;7.60;99.90;;;;;;5092276;27;20227;-57
2024/01/25 05:09:20;;;;;;;17.33;4.60;;;7.60;99.90;;;;;;5093290;28;20220;-54
2024/01/25 05:11:46;;;;;;;17.47;4.33;;;7.60;99.90;;;;;;5102597;27;20284;-52
2024/01/25 05:14:11;;;;;;;12.97;4.50;;;7.60;99.90;;;;;;5094540;27;20216;-52
2024/01/25 05:16:37;;;;;;;16.70;5.03;;;7.60;99.90;;;;;;5078513;28;20197;-53
2024/01/25 05:19:02;;;;;;;13.90;4.00;;;7.60;99.90;;;;;;5094101;27;20596;-53
2024/01/25 05:21:28;;;;;;;15.40;4.37;;;7.50;99.90;;;;;;5092845;28;20199;-53
2024/01/25 05:23:53;;;;;;;18.73;4.57;;;7.60;99.90;;;;;;5092233;28;20562;-53
2024/01/25 05:26:19;;;;;;;12.53;3.40;;;7.50;99.90;;;;;;5091355;28;20188;-52
2024/01/25 05:28:45;;;;;;;14.93;3.57;;;7.60;99.90;;;;;;5073503;28;20197;-53
2024/01/25 05:31:12;;;;;;;18.97;4.10;;;7.60;99.90;;;;;;5093474;27;20208;-53
2024/01/25 05:33:39;;;;;;;16.90;3.53;;;7.60;99.90;;;;;;5098396;27;20199;-53
2024/01/25 05:36:05;;;;;;;18.80;4.70;;;7.70;99.90;;;;;;5090697;28;20272;-54
2024/01/25 05:38:32;;;;;;;16.83;3.53;;;7.70;99.90;;;;;;5071032;28;20192;-53
2024/01/25 05:40:57;;;;;;;9.00;3.60;;;7.70;99.90;;;;;;5072075;28;20709;-53
2024/01/25 05:43:23;;;;;;;16.93;3.93;;;7.70;99.90;;;;;;5092931;28;20197;-53
2024/01/25 05:45:49;;;;;;;11.67;3.23;;;7.70;99.90;;;;;;5094318;27;20232;-53
2024/01/25 05:48:14;;;;;;;17.20;3.90;;;7.70;99.90;;;;;;5094861;27;20239;-54
2024/01/25 05:50:40;;;;;;;17.80;4.67;;;7.70;99.90;;;;;;5091110;28;20217;-54
2024/01/25 05:53:05;;;;;;;16.60;3.80;;;7.70;99.90;;;;;;5073738;28;20281;-54
2024/01/25 05:55:31;;;;;;;21.43;3.87;;;7.70;99.90;;;;;;5076204;28;20611;-53
2024/01/25 05:57:56;;;;;;;13.57;3.30;;;7.70;99.90;;;;;;5097299;28;20200;-54
2024/01/25 06:00:23;;;;;;;13.27;2.90;;;7.70;99.90;;;;;;5097701;28;20215;-52
2024/01/25 06:02:48;;;;;;;19.73;4.13;;;7.70;99.90;;;;;;5094437;28;20205;-54
2024/01/25 06:05:14;;;;;;;13.80;3.67;;;7.70;99.90;;;;;;5093115;28;20197;-53
2024/01/25 06:07:40;;;;;;;18.43;3.83;;;7.70;99.90;;;;;;5089041;28;20204;-53
2024/01/25 06:10:06;;;;;;;13.07;3.70;;;7.70;99.90;;;;;;5092431;28;20192;-54
2024/01/25 06:12:31;;;;;;;12.93;3.40;;;7.70;99.90;;;;;;5094136;28;20553;-54
2024/01/25 06:14:57;;;;;;;8.93;2.90;;;7.70;99.90;;;;;;5094666;28;20752;-54
2024/01/25 06:17:22;;;;;;;16.63;3.60;;;7.70;99.90;;;;;;5098295;28;20790;-53
2024/01/25 06:19:48;;;;;;;13.90;4.03;;;7.60;99.90;;;;;;5097681;28;20698;-53
2024/01/25 06:22:13;;;;;;;11.87;3.10;;;7.70;99.90;;;;;;5097413;28;20201;-53
2024/01/25 06:24:39;;;;;;;13.17;3.23;;;7.60;99.90;;;;;;5094460;28;20570;-53
2024/01/25 06:27:05;;;;;;;11.73;3.67;;;7.70;99.90;;;;;;5097040;28;20196;-54
2024/01/25 06:29:30;;;;;;;13.07;2.93;;;7.70;99.90;;;;;;5091333;28;20197;-54
2024/01/25 06:31:56;;;;;;;13.70;3.83;;;7.60;99.90;;;;;;5093794;28;20241;-54
2024/01/25 06:34:21;;;;;;;9.97;3.03;;;7.70;99.90;;;;;;5094256;28;20196;-54
2024/01/25 06:36:47;;;;;;;15.43;3.97;;;7.70;99.90;;;;;;5099217;28;20756;-54
2024/01/25 06:39:13;;;;;;;12.43;4.00;;;7.70;99.90;;;;;;5096559;28;20252;-53
2024/01/25 06:41:39;;;;;;;11.30;3.23;;;7.70;99.90;;;;;;5074477;28;20725;-54
2024/01/25 06:44:04;;;;;;;11.83;3.27;;;7.70;99.90;;;;;;5077770;28;20193;-52
2024/01/25 06:46:30;;;;;;;12.73;3.60;;;7.70;99.90;;;;;;5082853;28;20269;-53
2024/01/25 06:48:55;;;;;;;11.23;3.67;;;7.70;99.90;;;;;;5097242;28;20204;-53
2024/01/25 06:51:21;;;;;;;18.83;3.73;;;7.70;99.90;;;;;;5087950;28;20216;-53
2024/01/25 06:53:46;;;;;;;15.00;3.53;;;7.70;99.90;;;;;;5082764;28;20560;-54
2024/01/25 06:56:12;;;;;;;18.20;3.67;;;7.70;99.90;;;;;;5099397;28;20212;-54
2024/01/25 06:58:37;;;;;;;17.03;4.27;;;7.70;99.90;;;;;;5085424;28;20204;-55
2024/01/25 07:01:04;;;;;;;13.50;3.53;;;7.70;99.90;;;;;;5082277;28;20604;-54
2024/01/25 07:03:30;;;;;;;16.77;4.63;;;7.70;99.90;;;;;;5085954;27;20197;-54
2024/01/25 07:05:55;;;;;;;10.20;3.30;;;7.70;99.90;;;;;;5097904;27;20223;-53
2024/01/25 07:08:21;;;;;;;13.17;3.50;;;7.70;99.90;;;;;;5099713;27;20192;-54
2024/01/25 07:10:47;;;;;;;15.83;3.63;;;7.70;99.90;;;;;;5111811;27;20204;-53
2024/01/25 07:13:12;;;;;;;10.13;3.70;;;7.70;99.90;;;;;;5101616;27;20219;-53
2024/01/25 07:15:38;;;;;;;16.97;3.87;;;7.70;99.90;;;;;;5109975;27;20879;-54
2024/01/25 07:18:04;;;;;;;15.40;3.67;;;7.70;99.90;;;;;;5083705;28;20200;-52
2024/01/25 07:20:30;;;;;;;10.43;3.33;;;7.70;99.90;;;;;;5109329;27;20188;-52
2024/01/25 07:22:56;;;;;;;15.73;2.90;;;7.70;99.90;;;;;;5096232;27;20197;-52
2024/01/25 07:25:21;;;;;;;14.07;3.57;;;7.70;99.90;;;;;;5089793;27;20203;-53
2024/01/25 07:27:49;;;;;;;12.37;3.80;;;7.70;99.90;;;;;;5099558;27;20192;-53
2024/01/25 07:30:15;;;;;;;12.50;3.97;;;7.70;99.90;;;;;;5107492;27;20684;-53
2024/01/25 07:32:45;;;;;;;13.20;3.33;;;7.70;99.90;;;;;;5107793;27;20207;-59
2024/01/25 07:35:12;;;;;;;13.77;3.17;;;7.70;99.90;;;;;;5106446;27;20710;-53
2024/01/25 07:37:38;;;;;;;17.10;3.63;;;7.70;99.90;;;;;;5102578;27;20230;-53
2024/01/25 07:40:04;;;;;;;16.20;3.10;;;7.70;99.90;;;;;;5099298;27;20252;-53
2024/01/25 07:42:30;;;;;;;11.90;3.20;;;7.70;99.90;;;;;;5095207;27;20351;-53
2024/01/25 07:44:55;;;;;;;10.43;3.00;;;7.70;99.90;;;;;;5097184;27;20676;-53
2024/01/25 07:47:21;;;;;;;16.00;4.40;;;7.70;99.90;;;;;;5084653;28;20219;-53
2024/01/25 07:49:46;;;;;;;17.90;3.63;;;7.70;99.90;;;;;;5101170;27;20759;-52
2024/01/25 07:52:12;;;;;;;10.50;2.73;;;7.70;99.90;;;;;;5081145;28;20215;-52
2024/01/25 07:54:37;;;;;;;18.37;4.13;;;7.60;99.90;;;;;;5104520;27;20208;-53
2024/01/25 07:57:03;;;;;;;12.77;3.07;;;7.60;99.90;;;;;;5076030;28;20213;-53
2024/01/25 07:59:29;;;;;;;15.53;3.20;;;7.60;99.90;;;;;;5077253;28;20202;-53
2024/01/25 08:01:54;;;;;;;13.57;3.20;;;7.60;99.90;;;;;;5068151;28;20314;-53
2024/01/25 08:04:20;;;;;;;11.27;3.57;;;7.60;99.90;;;;;;5076238;28;20189;-54
2024/01/25 08:06:45;;;;;;;17.13;3.67;;;7.60;99.90;;;;;;5074532;28;20197;-54
2024/01/25 08:09:11;;;;;;;19.83;3.27;;;7.60;99.90;;;;;;5080647;28;20277;-54
2024/01/25 08:11:37;;;;;;;12.50;3.43;;;7.60;99.90;;;;;;5074687;28;20306;-54
2024/01/25 08:14:03;;;;;;;12.70;3.10;;;7.60;99.90;;;;;;5076265;28;20250;-53
2024/01/25 08:16:29;;;;;;;16.63;3.07;;;7.60;99.90;;;;;;5079447;28;20204;-53
2024/01/25 08:18:55;;;;;;;12.60;3.10;;;7.60;99.90;;;;;;5073953;28;20197;-53
2024/01/25 08:21:21;;;;;;;11.10;3.57;;;7.60;99.90;;;;;;5078449;28;20228;-53
2024/01/25 08:23:47;;;;;;;20.93;4.73;;;7.60;99.90;;;;;;5076125;28;20198;-53
2024/01/25 08:26:13;;;;;;;10.00;2.77;;;7.50;99.90;;;;;;5074490;28;20660;-52
2024/01/25 08:28:40;;;;;;;14.37;3.70;;;7.50;99.90;;;;;;5082361;28;20200;-56
2024/01/25 08:31:06;;;;;;;11.37;3.20;;;7.50;99.90;;;;;;5073103;28;20232;-54
2024/01/25 08:33:31;;;;;;;11.43;3.53;;;7.70;99.90;;;;;;5077843;28;20392;-53
2024/01/25 08:35:57;;;;;;;14.17;4.63;;;8.00;99.90;;;;;;5077601;28;20213;-54
2024/01/25 08:38:22;;;;;;;14.30;3.60;;;7.90;99.90;;;;;;5076971;28;20221;-57
2024/01/25 08:40:48;;;;;;;11.40;3.73;;;8.10;99.90;;;;;;5073631;28;20217;-53
2024/01/25 08:43:14;;;;;;;7.13;2.80;;;8.00;99.90;;;;;;5073726;28;20193;-56
2024/01/25 08:45:39;;;;;;;10.00;2.87;;;8.00;99.90;;;;;;5072257;28;20668;-53
2024/01/25 08:48:05;;;;;;;14.53;2.93;;;7.90;99.90;;;;;;5073276;28;20221;-54
2024/01/25 08:50:31;;;;;;;15.00;3.80;;;7.80;99.90;;;;;;5065585;28;20209;-57
2024/01/25 08:52:56;;;;;;;13.30;3.57;;;8.00;99.90;;;;;;5074664;28;20657;-56
2024/01/25 08:55:22;;;;;;;9.10;3.00;;;8.00;99.90;;;;;;5076915;28;20197;-54
2024/01/25 08:57:49;;;;;;;17.17;3.40;;;7.90;99.90;;;;;;5080453;28;20236;-54
2024/01/25 09:00:15;;;;;;;13.23;3.37;;;8.00;99.90;;;;;;5072926;28;20204;-53
2024/01/25 09:02:41;;;;;;;12.80;3.63;;;8.00;99.90;;;;;;5069714;28;20198;-54
2024/01/25 09:05:07;;;;;;;12.73;3.70;;;8.00;99.90;;;;;;5074206;28;20288;-54
2024/01/25 09:07:32;;;;;;;17.97;4.10;;;7.90;99.90;;;;;;5083241;28;20201;-54
2024/01/25 09:09:58;;;;;;;12.87;4.10;;;7.90;99.90;;;;;;5068856;28;20201;-54
2024/01/25 09:12:24;;;;;;;15.43;4.73;;;8.00;99.90;;;;;;5076486;28;20274;-53
2024/01/25 09:14:49;;;;;;;13.03;3.07;;;7.90;99.90;;;;;;5075006;28;20257;-55
2024/01/25 09:17:21;;;;;;;14.90;3.70;;;7.90;99.90;;;;;;5079610;28;20206;-59
2024/01/25 09:19:50;;;;;;;14.77;3.07;;;8.00;99.90;;;;;;5068896;28;20203;-55
2024/01/25 09:22:19;;;;;;;12.97;3.90;;;8.00;99.90;;;;;;5070753;28;20272;-54
2024/01/25 09:24:46;;;;;;;16.10;3.63;;;8.00;99.90;;;;;;5075194;28;20189;-54
2024/01/25 09:27:12;;;;;;;7.90;3.40;;;7.90;99.90;;;;;;5070729;28;20288;-54
2024/01/25 09:29:38;;;;;;;12.40;4.17;;;7.90;99.90;;;;;;5072343;28;20186;-54
2024/01/25 09:32:06;;;;;;;15.97;3.73;;;8.10;99.90;;;;;;5074398;28;20226;-53
2024/01/25 09:34:31;;;;;;;10.97;3.53;;;7.90;99.90;;;;;;5076563;28;20236;-54
2024/01/25 09:36:57;;;;;;;16.13;4.47;;;8.00;99.90;;;;;;5076702;28;20232;-53
2024/01/25 09:39:22;;;;;;;9.70;3.43;;;8.00;99.90;;;;;;5059907;28;20219;-53
2024/01/25 09:41:48;;;;;;;12.37;2.77;;;7.90;99.90;;;;;;5072714;28;20286;-58
2024/01/25 09:44:14;;;;;;;10.23;3.10;;;7.90;99.90;;;;;;5051234;28;20657;-55
2024/01/25 09:46:41;;;;;;;9.97;3.53;;;7.90;99.90;;;;;;5068408;28;20209;-58
2024/01/25 09:49:07;;;;;;;15.23;3.33;;;8.10;99.90;;;;;;5074021;28;20186;-57
2024/01/25 09:51:41;;;;;;;19.03;3.67;;;7.90;99.90;;;;;;5068657;28;20217;-55
2024/01/25 09:54:07;;;;;;;12.80;3.73;;;8.10;99.90;;;;;;5076920;28;20237;-54
2024/01/25 09:56:34;;;;;;;12.33;2.80;;;8.00;99.90;;;;;;5084907;27;20270;-54
2024/01/25 09:59:00;;;;;;;16.63;3.70;;;8.00;99.90;;;;;;5078451;28;20197;-53
2024/01/25 10:01:26;;;;;;;16.67;3.50;;;8.00;99.90;;;;;;5090223;28;20193;-53
2024/01/25 10:03:52;;;;;;;7.77;2.87;;;8.00;99.90;;;;;;5068897;28;20851;-54
2024/01/25 10:06:18;;;;;;;13.67;3.40;;;7.90;99.90;;;;;;5086399;28;20192;-54
2024/01/25 10:08:44;;;;;;;14.40;3.53;;;7.90;99.90;;;;;;5092394;28;20188;-56
2024/01/25 10:11:12;;;;;;;16.77;3.50;;;8.00;99.90;;;;;;5092457;28;20219;-53
2024/01/25 10:13:45;;;;;;;11.77;3.93;;;7.90;99.90;;;;;;5102744;28;20201;-54
2024/01/25 10:16:15;;;;;;;14.63;2.73;;;8.10;99.90;;;;;;5097453;28;21140;-54
2024/01/25 10:18:45;;;;;;;11.97;3.27;;;8.00;99.90;;;;;;5092371;28;20216;-55
2024/01/25 10:21:11;;;;;;;16.70;2.80;;;7.90;99.90;;;;;;5092124;28;20299;-57
2024/01/25 10:23:40;;;;;;;8.63;3.73;;;8.10;99.90;;;;;;5091769;28;20193;-60
2024/01/25 10:26:07;;;;;;;16.73;4.03;;;8.10;99.90;;;;;;5092518;28;20595;-59
2024/01/25 10:28:34;;;;;;;17.33;3.13;;;8.20;99.90;;;;;;5094107;28;20196;-57
2024/01/25 10:31:07;;;;;;;11.27;3.43;;;8.20;99.90;;;;;;5086149;28;20216;-57
2024/01/25 10:33:33;;;;;;;10.47;3.57;;;8.20;99.90;;;;;;5090395;28;20339;-59
2024/01/25 10:36:04;;;;;;;16.93;4.40;;;8.10;99.90;;;;;;5091279;28;20679;-60
2024/01/25 10:38:36;;;;;;;15.97;3.37;;;8.00;99.90;;;;;;5094032;27;20310;-63
2024/01/25 10:41:04;;;;;;;11.87;3.37;;;7.90;99.90;;;;;;5099610;27;20203;-58
2024/01/25 10:43:33;;;;;;;21.17;3.93;;;8.00;99.90;;;;;;5092685;27;20213;-53
2024/01/25 10:45:59;;;;;;;12.17;3.63;;;8.00;99.90;;;;;;5081638;27;20959;-52
2024/01/25 10:48:26;;;;;;;19.80;4.00;;;7.90;99.90;;;;;;5096099;27;20201;-57
2024/01/25 10:50:53;;;;;;;12.63;2.97;;;7.90;99.90;;;;;;5093974;27;20288;-52
2024/01/25 10:53:19;;;;;;;15.17;3.93;;;7.80;99.90;;;;;;5103296;27;20207;-55
2024/01/25 10:55:45;;;;;;;14.47;3.40;;;7.80;99.90;;;;;;5102045;27;20209;-53
2024/01/25 10:58:13;;;;;;;14.80;3.93;;;7.80;99.90;;;;;;5099620;27;20193;-54
2024/01/25 11:00:39;;;;;;;18.50;3.17;;;7.80;99.90;;;;;;5100317;27;20275;-54
2024/01/25 11:03:06;;;;;;;15.87;4.23;;;7.80;99.90;;;;;;5098614;27;20272;-54
2024/01/25 11:05:32;;;;;;;18.07;4.10;;;7.90;99.90;;;;;;5095686;27;20204;-53
2024/01/25 11:07:58;;;;;;;15.07;3.33;;;8.00;99.90;;;;;;5104703;27;20262;-54
2024/01/25 11:10:27;;;;;;;10.80;3.07;;;8.00;99.90;;;;;;5102594;27;20725;-54
2024/01/25 11:12:57;;;;;;;11.77;4.27;;;7.90;99.90;;;;;;5104543;27;20538;-54
2024/01/25 11:15:36;;;;;;;18.10;3.93;;;7.90;99.90;;;;;;5106037;27;20232;-54
2024/01/25 11:18:06;;;;;;;11.20;3.07;;;8.00;99.90;;;;;;5089139;27;20205;-53
2024/01/25 11:20:31;;;;;;;9.97;3.83;;;7.90;99.90;;;;;;5105654;27;20548;-53
2024/01/25 11:22:59;;;;;;;13.60;3.63;;;8.00;99.90;;;;;;5106377;27;20211;-54
2024/01/25 11:25:37;;;;;;;15.03;3.77;;;8.00;99.90;;;;;;5102751;27;20177;-54
2024/01/25 11:28:04;;;;;;;11.50;3.23;;;8.00;99.90;;;;;;5104551;27;20304;-54
2024/01/25 11:30:34;;;;;;;10.27;3.07;;;8.10;99.90;;;;;;5099973;27;20675;-55
2024/01/25 11:33:00;;;;;;;5.97;2.73;;;8.00;99.90;;;;;;5109294;27;20197;-54
2024/01/25 11:35:26;;;;;;;20.10;4.77;;;8.00;99.90;;;;;;5085352;27;20200;-54
2024/01/25 11:37:52;;;;;;;14.90;4.80;;;8.00;99.90;;;;;;5111023;27;20204;-54
2024/01/25 11:40:18;;;;;;;10.33;2.37;;;8.00;99.90;;;;;;5091393;28;20216;-54
2024/01/25 11:42:45;;;;;;;8.87;3.83;;;8.00;99.90;;;;;;5111534;27;20234;-54
2024/01/25 11:45:12;;;;;;;25.13;4.47;;;8.00;99.90;;;;;;5107144;27;20215;-55
2024/01/25 11:47:38;;;;;;;10.07;3.23;;;8.10;99.90;;;;;;5111522;27;20614;-54
2024/01/25 11:50:06;;;;;;;19.20;4.30;;;8.10;99.90;;;;;;5098320;27;20201;-54
2024/01/25 11:52:33;;;;;;;10.60;3.33;;;8.10;99.90;;;;;;5083554;28;20372;-54
2024/01/25 11:55:03;;;;;;;15.70;3.30;;;8.10;99.90;;;;;;5102237;27;20207;-54
2024/01/25 11:57:30;;;;;;;8.97;2.90;;;8.10;99.90;;;;;;5084587;28;21034;-54
2024/01/25 11:59:56;;;;;;;13.20;3.03;;;8.10;99.90;;;;;;5103298;27;20192;-54
2024/01/25 12:02:22;;;;;;;15.90;3.90;;;8.10;99.90;;;;;;5106578;27;20240;-54
2024/01/25 12:04:48;;;;;;;10.60;2.93;;;8.00;99.90;;;;;;5099719;27;20206;-54
2024/01/25 12:07:14;;;;;;;16.80;3.70;;;8.10;99.90;;;;;;5084880;27;20204;-54
2024/01/25 12:09:39;;;;;;;11.17;2.67;;;8.20;99.90;;;;;;5101412;27;20200;-54
2024/01/25 12:12:05;;;;;;;10.70;3.13;;;8.20;99.90;;;;;;5101716;27;20221;-54
2024/01/25 12:14:31;;;;;;;12.27;2.90;;;8.20;99.90;;;;;;5103349;27;20200;-54
2024/01/25 12:16:56;;;;;;;17.77;3.20;;;8.20;99.90;;;;;;5085206;27;20204;-55
2024/01/25 12:19:22;;;;;;;13.27;3.17;;;8.20;99.90;;;;;;5110858;27;20204;-54
2024/01/25 12:21:47;;;;;;;9.73;2.83;;;8.30;99.90;;;;;;5099564;27;20219;-54
2024/01/25 12:24:13;;;;;;;9.10;2.90;;;8.30;99.90;;;;;;5104343;27;20204;-55
2024/01/25 12:26:41;;;;;;;11.47;3.57;;;8.30;99.90;;;;;;5136405;22;20525;-55
2024/01/25 12:29:07;;;;;;;12.13;4.63;;;8.30;99.90;;;;;;5086660;28;20801;-54
2024/01/25 12:31:33;;;;;;;13.90;3.33;;;8.30;99.90;;;;;;5077722;28;20224;-54
2024/01/25 12:34:00;;;;;;;12.37;2.93;;;8.30;99.90;;;;;;5097703;27;20256;-53
2024/01/25 12:36:26;;;;;;;11.20;2.57;;;8.30;99.90;;;;;;5094995;27;20310;-62
2024/01/25 12:38:51;;;;;;;13.50;3.50;;;8.30;99.90;;;;;;5094048;27;20197;-54
2024/01/25 12:41:17;;;;;;;11.40;3.33;;;8.40;99.90;;;;;;5073888;28;20447;-54